Time;durP1;ratioP1;P1;durP2;ratioP2;P2;SDS_P1;SDS_P2;PMS_P1;PMS_P2;Temp;Humidity;BMP_temperature;BMP_pressure;BME280_temperature;BME280_humidity;BME280_pressure;Samples;Min_cycle;Max_cycle;Signal;HPM_P1;HPM_P2
2022/06/14 00:01:22;;;;;;;40.77;38.50;;;12.70;99.90;;;;;;4995122;28;20721;-78
2022/06/14 00:03:48;;;;;;;32.23;30.30;;;12.60;99.90;;;;;;4997751;28;20185;-77
2022/06/14 00:06:17;;;;;;;28.80;26.80;;;12.50;99.90;;;;;;5008271;28;20208;-77
2022/06/14 00:08:43;;;;;;;25.40;23.57;;;12.50;99.90;;;;;;5003248;28;20191;-77
2022/06/14 00:11:25;;;;;;;19.50;18.10;;;12.50;99.90;;;;;;4994417;28;20673;-77
2022/06/14 00:13:53;;;;;;;17.60;16.33;;;12.40;99.90;;;;;;4994129;28;20675;-78
2022/06/14 00:16:19;;;;;;;16.00;14.70;;;12.50;99.90;;;;;;4994481;28;20212;-78
2022/06/14 00:18:45;;;;;;;16.60;15.37;;;12.50;99.90;;;;;;4992763;28;20645;-78
2022/06/14 00:21:11;;;;;;;15.40;14.20;;;12.40;99.90;;;;;;4994136;28;20243;-78
2022/06/14 00:23:38;;;;;;;15.07;13.90;;;12.40;99.90;;;;;;4996424;28;20184;-77
2022/06/14 00:26:05;;;;;;;15.97;15.00;;;12.30;99.90;;;;;;4996184;28;20200;-78
2022/06/14 00:28:33;;;;;;;12.63;11.57;;;12.20;99.90;;;;;;4995476;28;20251;-77
2022/06/14 00:31:02;;;;;;;11.93;10.87;;;12.10;99.90;;;;;;4995480;28;20180;-77
2022/06/14 00:33:28;;;;;;;10.43;9.67;;;12.20;99.90;;;;;;4994992;28;20307;-77
2022/06/14 00:36:24;;;;;;;19.43;18.13;;;12.20;99.90;;;;;;4996271;28;20256;-77
2022/06/14 00:38:50;;;;;;;10.80;10.10;;;12.20;99.90;;;;;;4990590;28;20199;-78
2022/06/14 00:41:39;;;;;;;22.07;20.00;;;12.20;99.90;;;;;;4997256;28;20291;-78
2022/06/14 00:44:17;;;;;;;15.80;14.70;;;12.20;99.90;;;;;;5001948;28;20179;-77
2022/06/14 00:46:55;;;;;;;20.97;19.70;;;12.10;99.90;;;;;;5013700;28;20199;-77
2022/06/14 00:49:28;;;;;;;13.30;12.33;;;12.10;99.90;;;;;;5010719;28;20176;-77
2022/06/14 00:52:06;;;;;;;23.23;21.63;;;12.10;99.90;;;;;;4998565;28;20188;-77
2022/06/14 00:54:37;;;;;;;22.60;21.20;;;12.00;99.90;;;;;;4994065;28;20257;-77
2022/06/14 00:57:11;;;;;;;29.70;28.00;;;12.00;99.90;;;;;;4993482;28;20204;-77
2022/06/14 01:00:05;;;;;;;10.33;9.50;;;12.00;99.90;;;;;;4995280;28;20180;-77
2022/06/14 01:02:35;;;;;;;13.97;12.97;;;12.00;99.90;;;;;;4994544;28;20708;-78
2022/06/14 01:05:07;;;;;;;18.23;17.13;;;12.00;99.90;;;;;;4996551;28;20181;-78
2022/06/14 01:07:38;;;;;;;27.67;25.77;;;12.00;99.90;;;;;;4996244;28;20692;-78
2022/06/14 01:10:08;;;;;;;20.13;18.60;;;12.00;99.90;;;;;;4996614;28;20271;-77
2022/06/14 01:12:41;;;;;;;16.73;15.67;;;12.00;99.90;;;;;;4998827;28;20188;-77
2022/06/14 01:15:12;;;;;;;10.80;8.63;;;12.00;99.90;;;;;;5002005;28;20411;-78
2022/06/14 01:17:43;;;;;;;7.83;7.00;;;12.00;99.90;;;;;;4995696;28;20188;-77
2022/06/14 01:20:12;;;;;;;10.70;9.90;;;12.00;99.90;;;;;;4989724;28;20269;-77
2022/06/14 01:22:39;;;;;;;11.33;10.30;;;12.00;99.90;;;;;;5001246;28;20215;-76
2022/06/14 01:25:06;;;;;;;8.93;8.13;;;11.90;99.90;;;;;;5012030;28;20195;-76
2022/06/14 01:27:35;;;;;;;10.03;9.27;;;11.90;99.90;;;;;;5000076;28;20204;-76
2022/06/14 01:30:28;;;;;;;9.87;9.27;;;11.90;99.90;;;;;;5007031;28;20571;-78
2022/06/14 01:33:09;;;;;;;9.47;8.87;;;11.90;99.90;;;;;;4996997;28;20208;-77
2022/06/14 01:35:37;;;;;;;14.17;13.07;;;11.90;99.90;;;;;;5007870;28;20208;-76
2022/06/14 01:38:07;;;;;;;18.47;17.23;;;11.90;99.90;;;;;;5002532;28;20664;-77
2022/06/14 01:40:33;;;;;;;17.73;16.53;;;11.80;99.90;;;;;;5002811;28;20192;-78
2022/06/14 01:43:32;;;;;;;25.77;24.27;;;11.80;99.90;;;;;;5001801;28;20173;-77
2022/06/14 01:46:21;;;;;;;45.17;42.07;;;11.70;99.90;;;;;;4997646;28;20215;-77
2022/06/14 01:52:24;;;;;;;42.20;39.73;;;11.60;99.90;;;;;;4995443;28;20236;-78
2022/06/14 01:54:50;;;;;;;60.47;57.00;;;11.50;99.90;;;;;;4994313;28;20196;-78
2022/06/14 01:57:44;;;;;;;74.20;69.83;;;11.60;99.90;;;;;;4992902;28;20204;-78
2022/06/14 02:00:15;;;;;;;33.73;31.90;;;11.50;99.90;;;;;;4994156;28;20667;-78
2022/06/14 02:04:36;;;;;;;41.40;39.10;;;11.50;99.90;;;;;;5009662;28;20211;-76
2022/06/14 02:05:49;;;;;;;70.37;66.53;;;11.50;99.90;;;;;;4995530;28;20200;-78
2022/06/14 02:08:23;;;;;;;67.43;63.60;;;11.40;99.90;;;;;;4993587;28;20618;-77
2022/06/14 02:11:08;;;;;;;87.80;83.30;;;11.40;99.90;;;;;;4993649;28;20220;-78
2022/06/14 02:13:46;;;;;;;84.40;80.03;;;11.40;99.90;;;;;;4992275;28;20191;-78
2022/06/14 02:16:32;;;;;;;94.33;89.33;;;11.40;99.90;;;;;;4992818;28;20262;-77
2022/06/14 02:19:01;;;;;;;72.87;68.97;;;11.40;99.90;;;;;;4992832;28;20239;-77
2022/06/14 02:21:33;;;;;;;81.73;76.43;;;11.40;99.90;;;;;;4994828;28;20203;-79
2022/06/14 02:24:15;;;;;;;103.10;97.13;;;11.30;99.90;;;;;;4995041;28;20191;-80
2022/06/14 02:27:09;;;;;;;71.30;67.27;;;11.30;99.90;;;;;;4991745;28;20692;-79
2022/06/14 02:29:45;;;;;;;87.23;82.63;;;11.30;99.90;;;;;;5006039;28;20164;-78
2022/06/14 02:32:34;;;;;;;61.30;57.87;;;11.20;99.90;;;;;;4995983;28;20207;-78
2022/06/14 02:35:07;;;;;;;35.00;33.03;;;11.20;99.90;;;;;;5001923;28;20211;-77
2022/06/14 02:37:55;;;;;;;47.23;44.63;;;11.10;99.90;;;;;;4996213;28;20230;-77
2022/06/14 02:40:48;;;;;;;31.77;30.13;;;11.10;99.90;;;;;;4992235;28;20239;-80
2022/06/14 02:43:26;;;;;;;36.63;34.23;;;11.10;99.90;;;;;;4987141;28;20192;-79
2022/06/14 02:45:57;;;;;;;22.87;21.40;;;11.00;99.90;;;;;;4991370;28;20211;-77
2022/06/14 02:48:40;;;;;;;22.73;21.23;;;10.90;99.90;;;;;;4991173;28;20235;-77
2022/06/14 02:51:17;;;;;;;23.07;21.63;;;10.80;99.90;;;;;;4992201;28;20180;-77
2022/06/14 02:53:51;;;;;;;16.63;15.50;;;10.80;99.90;;;;;;4991833;28;20192;-79
2022/06/14 02:56:44;;;;;;;12.80;11.83;;;10.70;99.90;;;;;;4991972;28;20207;-77
2022/06/14 02:59:29;;;;;;;12.57;11.50;;;10.70;99.90;;;;;;4992109;28;20266;-78
2022/06/14 03:02:14;;;;;;;10.43;9.37;;;10.70;99.90;;;;;;4993939;28;20216;-77
2022/06/14 03:05:06;;;;;;;8.97;8.17;;;10.70;99.90;;;;;;4997009;28;20409;-76
2022/06/14 03:07:40;;;;;;;9.77;9.13;;;10.70;99.90;;;;;;5002260;28;20208;-78
2022/06/14 03:10:07;;;;;;;9.20;8.50;;;10.70;99.90;;;;;;5004343;28;20191;-77
2022/06/14 03:12:32;;;;;;;10.03;9.33;;;10.70;99.90;;;;;;4993143;28;20200;-78
2022/06/14 03:15:17;;;;;;;11.00;9.40;;;10.70;99.90;;;;;;4986078;28;20190;-77
2022/06/14 03:18:02;;;;;;;10.33;9.40;;;10.70;99.90;;;;;;4995954;28;20196;-77
2022/06/14 03:20:54;;;;;;;10.50;9.67;;;10.70;99.90;;;;;;4975357;28;20734;-78
2022/06/14 03:23:28;;;;;;;11.80;10.63;;;10.70;99.90;;;;;;4990856;28;20281;-77
2022/06/14 03:25:58;;;;;;;17.63;16.03;;;10.70;99.90;;;;;;4991578;28;20218;-77
2022/06/14 03:28:39;;;;;;;13.90;12.57;;;10.80;99.90;;;;;;4985593;28;20737;-77
2022/06/14 03:31:19;;;;;;;20.43;18.40;;;10.80;99.90;;;;;;5003911;28;20180;-77
2022/06/14 03:34:04;;;;;;;16.77;15.67;;;10.80;99.90;;;;;;4991232;28;20192;-69
2022/06/14 03:36:30;;;;;;;17.40;16.20;;;10.80;99.90;;;;;;4990343;28;20222;-69
2022/06/14 03:39:01;;;;;;;20.00;18.53;;;10.80;99.90;;;;;;4989588;28;20191;-69
2022/06/14 03:41:31;;;;;;;10.53;9.63;;;10.80;99.90;;;;;;4991475;28;20593;-69
2022/06/14 03:44:01;;;;;;;9.53;8.53;;;10.80;99.90;;;;;;4991698;28;20180;-69
2022/06/14 03:46:40;;;;;;;10.10;9.43;;;10.80;99.90;;;;;;4991542;28;20204;-69
2022/06/14 03:49:12;;;;;;;18.70;17.23;;;10.80;99.90;;;;;;4989131;28;20200;-69
2022/06/14 03:51:45;;;;;;;22.57;21.10;;;10.80;99.90;;;;;;4989075;28;20259;-69
2022/06/14 03:54:41;;;;;;;37.60;35.07;;;10.80;99.90;;;;;;4991639;28;20180;-69
2022/06/14 03:57:25;;;;;;;22.87;21.57;;;10.80;99.90;;;;;;4977937;28;20678;-69
2022/06/14 04:00:10;;;;;;;18.77;17.57;;;10.90;99.90;;;;;;4975592;28;20276;-68
2022/06/14 04:03:12;;;;;;;10.97;9.43;;;11.00;99.90;;;;;;4991516;28;20199;-69
2022/06/14 04:06:14;;;;;;;9.53;8.93;;;11.00;99.90;;;;;;4995282;28;20568;-69
2022/06/14 04:08:57;;;;;;;10.10;9.10;;;11.10;99.90;;;;;;4994299;28;20180;-69
2022/06/14 04:11:43;;;;;;;8.47;7.87;;;11.20;99.90;;;;;;4995021;28;20200;-69
2022/06/14 04:14:17;;;;;;;13.00;11.90;;;11.20;99.90;;;;;;4975889;28;20656;-69
2022/06/14 04:16:53;;;;;;;23.27;21.23;;;11.30;99.90;;;;;;4993231;28;20654;-69
2022/06/14 04:19:38;;;;;;;27.03;25.07;;;11.30;99.90;;;;;;4993602;28;20673;-69
2022/06/14 04:22:28;;;;;;;27.17;24.97;;;11.40;99.90;;;;;;4994564;28;20706;-69
2022/06/14 04:25:06;;;;;;;23.77;22.33;;;11.40;99.90;;;;;;4993879;28;20208;-69
2022/06/14 04:27:52;;;;;;;64.37;60.50;;;11.50;99.90;;;;;;4993621;28;20200;-69
2022/06/14 04:30:30;;;;;;;85.27;80.70;;;11.60;99.90;;;;;;4994202;28;20199;-69
2022/06/14 04:33:28;;;;;;;65.07;61.33;;;11.70;99.90;;;;;;4993816;28;20190;-69
2022/06/14 04:35:59;;;;;;;61.63;58.03;;;11.70;99.90;;;;;;5021191;22;21395;-67
2022/06/14 04:38:37;;;;;;;80.70;76.17;;;11.80;99.90;;;;;;5033163;28;20245;-68
2022/06/14 04:41:33;;;;;;;30.93;28.53;;;11.90;99.90;;;;;;5033066;28;20713;-68
2022/06/14 04:44:04;;;;;;;12.93;11.53;;;12.00;99.90;;;;;;5033700;28;20183;-67
2022/06/14 04:46:37;;;;;;;18.17;16.47;;;12.10;99.90;;;;;;5040702;28;20210;-68
2022/06/14 04:49:10;;;;;;;18.80;17.40;;;12.20;99.90;;;;;;5051879;28;20214;-69
2022/06/14 04:51:47;;;;;;;15.20;13.90;;;12.30;99.90;;;;;;5053672;28;20652;-69
2022/06/14 04:54:34;;;;;;;9.90;9.20;;;12.50;99.90;;;;;;5052744;28;20675;-70
2022/06/14 04:57:07;;;;;;;8.20;7.50;;;12.60;99.90;;;;;;5051307;28;20210;-69
2022/06/14 04:59:44;;;;;;;23.20;21.50;;;12.90;99.90;;;;;;5053531;28;20554;-70
2022/06/14 05:02:13;;;;;;;26.07;24.23;;;13.20;99.90;;;;;;5051121;28;20586;-70
2022/06/14 05:04:47;;;;;;;22.17;20.50;;;13.40;99.90;;;;;;5053443;28;20197;-69
2022/06/14 05:07:19;;;;;;;13.50;12.17;;;13.70;99.90;;;;;;5050040;28;20206;-70
2022/06/14 05:09:53;;;;;;;12.90;11.53;;;14.20;99.90;;;;;;5052393;28;20533;-70
2022/06/14 05:12:24;;;;;;;28.33;26.47;;;14.80;99.90;;;;;;5052952;28;20193;-69
2022/06/14 05:14:58;;;;;;;23.23;21.63;;;15.40;99.90;;;;;;5053204;28;20651;-69
2022/06/14 05:17:31;;;;;;;16.23;15.07;;;16.00;99.90;;;;;;5050266;28;20311;-69
2022/06/14 05:20:16;;;;;;;8.17;7.57;;;16.40;99.90;;;;;;5053227;28;20897;-69
2022/06/14 05:23:06;;;;;;;8.40;7.63;;;16.80;99.90;;;;;;5051603;28;20217;-70
2022/06/14 05:25:46;;;;;;;10.30;9.00;;;17.20;99.90;;;;;;5052257;28;20175;-69
2022/06/14 05:28:15;;;;;;;12.27;10.73;;;17.30;99.90;;;;;;5050310;28;20607;-69
2022/06/14 05:30:46;;;;;;;7.77;7.13;;;17.50;99.90;;;;;;5051003;28;20170;-69
2022/06/14 05:33:30;;;;;;;9.03;8.10;;;17.70;99.90;;;;;;5050603;28;20178;-69
2022/06/14 05:36:18;;;;;;;11.93;11.03;;;17.80;99.90;;;;;;5052695;28;20701;-69
2022/06/14 05:39:00;;;;;;;18.57;17.43;;;18.00;99.90;;;;;;5051891;28;20193;-69
2022/06/14 05:41:34;;;;;;;39.20;37.03;;;18.00;99.90;;;;;;5051125;28;20588;-70
2022/06/14 05:44:25;;;;;;;19.07;17.67;;;18.30;99.90;;;;;;5052841;28;20182;-69
2022/06/14 05:46:53;;;;;;;19.93;18.23;;;18.70;99.90;;;;;;5052074;28;20206;-72
2022/06/14 05:49:25;;;;;;;15.20;14.00;;;19.20;99.90;;;;;;5044789;28;20171;-71
2022/06/14 05:52:16;;;;;;;24.40;22.95;;;19.70;99.90;;;;;;5044484;28;20265;-69
2022/06/14 05:55:19;;;;;;;17.67;16.30;;;20.00;99.90;;;;;;5050669;28;20704;-70
2022/06/14 05:57:48;;;;;;;11.38;8.57;;;20.50;99.90;;;;;;5030790;28;20623;-69
2022/06/14 06:00:37;;;;;;;8.00;6.78;;;21.00;99.90;;;;;;5032181;28;20871;-69
2022/06/14 06:03:18;;;;;;;7.10;6.50;;;21.50;99.90;;;;;;5031264;28;20198;-69
2022/06/14 06:05:50;;;;;;;6.35;5.72;;;21.80;99.90;;;;;;5032095;28;20703;-69
2022/06/14 06:08:43;;;;;;;8.45;6.68;;;21.80;99.90;;;;;;5045067;28;20265;-69
2022/06/14 06:11:25;;;;;;;10.02;9.20;;;22.10;99.90;;;;;;5051877;28;20194;-69
2022/06/14 06:14:09;;;;;;;13.00;9.25;;;22.40;99.90;;;;;;5052068;28;20201;-69
2022/06/14 06:17:00;;;;;;;7.18;6.18;;;22.60;99.90;;;;;;5050665;28;20224;-68
2022/06/14 06:19:59;;;;;;;7.82;6.22;;;22.80;99.90;;;;;;5051439;28;20185;-69
2022/06/14 06:22:34;;;;;;;5.78;5.35;;;22.80;99.90;;;;;;5052132;28;20214;-69
2022/06/14 06:25:08;;;;;;;6.55;5.95;;;22.80;99.90;;;;;;5052942;28;20681;-74
2022/06/14 06:28:07;;;;;;;6.40;5.85;;;22.70;99.90;;;;;;5051954;28;20234;-68
2022/06/14 06:30:59;;;;;;;6.22;5.72;;;22.50;99.90;;;;;;5048880;28;20220;-67
2022/06/14 06:33:27;;;;;;;12.00;7.40;;;23.20;99.90;;;;;;5050782;28;20186;-68
2022/06/14 06:36:13;;;;;;;8.45;7.63;;;23.50;99.90;;;;;;5050548;28;20211;-68
2022/06/14 06:39:17;;;;;;;7.25;6.50;;;23.70;98.60;;;;;;5050998;28;20194;-67
2022/06/14 06:41:51;;;;;;;8.68;6.80;;;23.50;97.70;;;;;;5051685;28;20233;-67
2022/06/14 06:44:31;;;;;;;9.15;7.43;;;23.20;97.70;;;;;;5051824;28;20217;-68
2022/06/14 06:47:14;;;;;;;7.97;7.15;;;23.50;97.90;;;;;;5050265;28;20194;-67
2022/06/14 06:49:59;;;;;;;6.70;5.47;;;24.20;96.70;;;;;;5051783;28;20174;-68
2022/06/14 06:52:35;;;;;;;10.75;6.72;;;24.40;93.90;;;;;;5051525;28;20764;-68
2022/06/14 06:55:11;;;;;;;7.88;5.63;;;24.20;93.60;;;;;;5051474;28;20273;-68
2022/06/14 06:57:39;;;;;;;7.90;5.78;;;24.20;94.30;;;;;;5050531;28;20216;-69
2022/06/14 07:00:06;;;;;;;6.97;6.05;;;24.40;93.00;;;;;;5044259;28;20183;-69
2022/06/14 07:02:46;;;;;;;8.50;7.00;;;24.50;93.20;;;;;;5034122;28;20306;-69
2022/06/14 07:05:17;;;;;;;7.00;6.40;;;24.80;91.60;;;;;;5031242;28;20235;-68
2022/06/14 07:07:49;;;;;;;8.52;7.85;;;25.10;91.60;;;;;;5047037;28;20202;-68
2022/06/14 07:10:25;;;;;;;7.72;6.93;;;25.20;90.60;;;;;;5050929;28;20186;-68
2022/06/14 07:13:03;;;;;;;8.43;7.07;;;25.40;91.10;;;;;;5049757;28;20558;-68
2022/06/14 07:15:29;;;;;;;9.00;8.20;;;25.30;89.90;;;;;;5049971;28;20556;-68
2022/06/14 07:17:59;;;;;;;8.15;7.03;;;24.80;91.30;;;;;;5048922;28;20206;-68
2022/06/14 07:20:34;;;;;;;9.68;8.65;;;25.30;91.00;;;;;;5050594;28;20186;-68
2022/06/14 07:23:22;;;;;;;8.55;7.82;;;25.30;90.40;;;;;;5049874;28;20215;-68
2022/06/14 07:25:48;;;;;;;7.93;7.20;;;25.50;88.50;;;;;;5050566;28;20179;-67
2022/06/14 07:28:18;;;;;;;16.52;15.07;;;25.60;87.10;;;;;;5049206;28;20186;-67
2022/06/14 07:30:49;;;;;;;18.45;17.17;;;26.00;85.20;;;;;;5049267;28;20170;-68
2022/06/14 07:33:17;;;;;;;33.00;30.95;;;25.70;84.50;;;;;;5051129;28;20254;-70
2022/06/14 07:35:52;;;;;;;21.33;20.08;;;26.00;82.20;;;;;;5050839;28;20650;-67
2022/06/14 07:38:42;;;;;;;17.13;16.00;;;25.80;84.60;;;;;;5050324;28;20204;-67
2022/06/14 07:41:20;;;;;;;14.40;13.40;;;26.20;85.20;;;;;;5050854;28;20202;-67
2022/06/14 07:44:17;;;;;;;29.05;27.00;;;25.90;83.80;;;;;;5049687;28;20178;-75
2022/06/14 07:47:05;;;;;;;36.05;33.92;;;26.10;79.90;;;;;;5050263;28;20202;-68
2022/06/14 07:49:34;;;;;;;19.40;17.92;;;25.60;79.80;;;;;;5049513;28;20182;-67
2022/06/14 07:52:22;;;;;;;16.90;15.82;;;25.20;79.40;;;;;;5046976;28;20182;-68
2022/06/14 07:54:52;;;;;;;20.15;18.73;;;25.20;79.90;;;;;;5051923;28;20186;-68
2022/06/14 07:57:23;;;;;;;30.42;28.20;;;25.40;80.70;;;;;;5048980;28;20205;-68
2022/06/14 08:02:56;;;;;;;20.85;19.45;;;25.70;78.30;;;;;;5050315;28;20309;-68
2022/06/14 08:05:26;;;;;;;21.05;19.52;;;25.60;74.90;;;;;;5050770;28;20698;-67
2022/06/14 08:07:56;;;;;;;22.88;21.23;;;26.00;73.20;;;;;;5048839;28;20202;-67
2022/06/14 08:10:28;;;;;;;16.10;14.93;;;26.80;74.50;;;;;;5050274;28;20174;-68
2022/06/14 08:13:02;;;;;;;14.82;13.93;;;26.80;70.00;;;;;;5050139;28;20639;-68
2022/06/14 08:15:34;;;;;;;17.77;16.58;;;26.40;67.50;;;;;;5049626;28;20182;-68
2022/06/14 08:18:09;;;;;;;15.90;14.88;;;26.20;68.70;;;;;;5049400;28;20613;-68
2022/06/14 08:20:47;;;;;;;20.55;19.23;;;26.40;69.70;;;;;;5050332;28;20178;-68
2022/06/14 08:23:25;;;;;;;19.60;18.48;;;26.80;69.80;;;;;;5049670;28;20273;-68
2022/06/14 08:26:04;;;;;;;19.77;18.60;;;27.40;68.30;;;;;;5048726;28;20178;-68
2022/06/14 08:28:47;;;;;;;25.42;23.75;;;27.20;66.80;;;;;;5048110;28;20208;-68
2022/06/14 08:31:18;;;;;;;20.20;18.67;;;27.20;67.30;;;;;;5049477;28;20182;-67
2022/06/14 08:33:48;;;;;;;19.15;17.70;;;27.40;65.40;;;;;;5049932;28;20178;-68
2022/06/14 08:36:19;;;;;;;12.82;11.52;;;27.40;63.90;;;;;;5050110;28;20222;-68
2022/06/14 08:38:54;;;;;;;17.58;16.25;;;27.50;62.50;;;;;;5048120;28;20550;-67
2022/06/14 08:41:38;;;;;;;16.17;15.05;;;27.70;61.80;;;;;;5050619;28;20578;-68
2022/06/14 08:44:21;;;;;;;15.43;14.27;;;27.60;60.30;;;;;;5053250;28;20594;-68
2022/06/14 08:46:56;;;;;;;12.55;11.45;;;27.50;60.80;;;;;;5064350;28;20228;-76
2022/06/14 08:49:43;;;;;;;18.23;17.15;;;27.50;61.80;;;;;;5068975;28;20562;-78
2022/06/14 08:52:21;;;;;;;13.38;12.35;;;27.90;61.10;;;;;;5060025;28;20181;-79
2022/06/14 08:55:24;;;;;;;16.73;15.50;;;28.10;60.60;;;;;;5062780;28;20197;-78
2022/06/14 08:58:08;;;;;;;13.40;12.60;;;28.40;61.40;;;;;;5060780;28;20760;-79
2022/06/14 09:01:00;;;;;;;16.98;15.95;;;28.80;58.90;;;;;;5061633;28;20197;-77
2022/06/14 09:03:58;;;;;;;14.88;13.73;;;29.00;58.50;;;;;;5060635;28;20241;-77
2022/06/14 09:06:48;;;;;;;10.05;7.90;;;28.90;56.60;;;;;;5017249;28;20210;-78
2022/06/14 09:09:35;;;;;;;12.20;11.18;;;27.40;57.60;;;;;;5060898;28;20190;-78
2022/06/14 09:12:10;;;;;;;17.48;16.05;;;26.90;58.90;;;;;;5059867;28;20186;-80
2022/06/14 09:14:46;;;;;;;15.25;14.15;;;27.30;62.00;;;;;;5060924;28;20190;-78
2022/06/14 09:17:24;;;;;;;11.68;10.88;;;28.10;59.00;;;;;;5059613;28;20285;-80
2022/06/14 09:20:45;;;;;;;10.93;10.00;;;28.50;57.30;;;;;;5057605;28;20186;-79
2022/06/14 09:23:33;;;;;;;9.38;8.20;;;28.50;56.00;;;;;;4979302;28;20199;-80
2022/06/14 09:26:24;;;;;;;8.77;8.02;;;28.30;53.70;;;;;;5056022;28;20717;-80
2022/06/14 09:29:19;;;;;;;10.50;8.68;;;28.10;52.70;;;;;;5054443;28;20201;-80
2022/06/14 09:32:29;;;;;;;8.68;8.07;;;28.40;55.00;;;;;;5066523;28;20353;-79
2022/06/14 09:35:01;;;;;;;13.82;12.70;;;28.80;57.10;;;;;;5054741;28;20246;-78
2022/06/14 09:37:30;;;;;;;11.05;10.23;;;29.10;56.10;;;;;;5062039;28;20833;-80
2022/06/14 09:40:14;;;;;;;24.55;22.92;;;28.60;55.00;;;;;;5061900;28;20229;-78
2022/06/14 09:43:22;;;;;;;7.68;6.47;;;28.30;57.20;;;;;;5062466;28;20217;-79
2022/06/14 09:46:06;;;;;;;9.23;8.30;;;28.50;53.70;;;;;;5061406;28;20205;-79
2022/06/14 09:48:52;;;;;;;6.07;5.55;;;28.90;52.10;;;;;;5061422;28;20193;-78
2022/06/14 09:51:43;;;;;;;7.82;7.28;;;28.90;50.80;;;;;;5062918;28;20186;-80
2022/06/14 09:54:38;;;;;;;11.30;10.23;;;28.90;51.40;;;;;;5062328;28;20332;-80
2022/06/14 09:57:46;;;;;;;5.38;4.63;;;29.20;51.80;;;;;;5063474;28;20298;-80
2022/06/14 10:00:17;;;;;;;6.63;5.57;;;29.10;51.10;;;;;;5063023;28;20186;-80
2022/06/14 10:03:17;;;;;;;6.70;6.10;;;29.20;52.00;;;;;;5061175;28;20214;-79
2022/06/14 10:06:37;;;;;;;7.57;7.07;;;29.10;50.10;;;;;;5059986;28;20198;-80
2022/06/14 10:09:30;;;;;;;5.95;5.28;;;28.80;49.70;;;;;;4981997;28;20352;-81
2022/06/14 10:12:21;;;;;;;6.57;6.03;;;28.60;51.80;;;;;;5058646;28;20617;-82
2022/06/14 10:15:14;;;;;;;25.02;23.35;;;29.30;50.00;;;;;;5062661;28;20178;-80
2022/06/14 10:18:06;;;;;;;8.70;8.00;;;29.60;48.40;;;;;;5063148;28;20555;-80
2022/06/14 10:20:53;;;;;;;56.65;53.72;;;30.50;51.70;;;;;;5060857;28;20194;-79
2022/06/14 10:23:31;;;;;;;49.35;46.67;;;30.70;48.70;;;;;;5060218;28;20190;-79
2022/06/14 10:29:17;;;;;;;56.67;53.65;;;30.50;49.00;;;;;;5066859;28;20178;-80
2022/06/14 10:31:43;;;;;;;58.22;55.08;;;31.10;45.90;;;;;;5062822;28;20218;-80
2022/06/14 10:34:31;;;;;;;62.72;59.25;;;31.20;46.70;;;;;;5066860;28;20187;-80
2022/06/14 10:37:19;;;;;;;70.45;66.72;;;31.10;47.50;;;;;;5066318;28;20222;-80
2022/06/14 10:40:09;;;;;;;36.53;34.58;;;30.50;48.70;;;;;;5068601;28;20199;-80
2022/06/14 10:42:41;;;;;;;63.80;60.60;;;30.90;46.40;;;;;;5068038;28;20218;-79
2022/06/14 10:45:12;;;;;;;78.25;74.25;;;30.80;48.00;;;;;;5067510;28;20277;-80
2022/06/14 10:47:46;;;;;;;103.72;98.63;;;30.70;47.50;;;;;;5056610;28;20587;-81
2022/06/14 10:50:15;;;;;;;77.32;73.35;;;30.50;48.10;;;;;;5040450;28;20182;-81
2022/06/14 10:53:11;;;;;;;73.60;70.05;;;30.00;49.70;;;;;;5057272;28;20171;-82
2022/06/14 10:55:59;;;;;;;62.72;59.53;;;29.80;49.00;;;;;;5068269;28;20182;-81
2022/06/14 10:59:03;;;;;;;56.10;52.85;;;30.10;52.60;;;;;;5059403;28;20182;-81
2022/06/14 11:01:43;;;;;;;30.33;28.55;;;31.30;47.80;;;;;;5057103;28;20201;-81
2022/06/14 11:04:16;;;;;;;21.88;20.35;;;31.90;45.10;;;;;;5055164;28;20189;-81
2022/06/14 11:07:07;;;;;;;22.25;20.83;;;32.00;45.00;;;;;;5067925;28;20198;-80
2022/06/14 11:09:41;;;;;;;20.00;18.70;;;31.40;46.70;;;;;;5060501;28;20186;-80
2022/06/14 11:12:45;;;;;;;12.25;11.45;;;32.10;44.80;;;;;;5065042;28;20261;-80
2022/06/14 11:15:18;;;;;;;21.35;20.10;;;31.60;45.60;;;;;;5066682;28;20181;-80
2022/06/14 11:17:49;;;;;;;19.73;18.63;;;31.70;47.80;;;;;;5059083;28;20212;-81
2022/06/14 11:20:26;;;;;;;30.70;28.65;;;32.60;45.00;;;;;;5063973;28;20193;-80
2022/06/14 11:23:24;;;;;;;46.33;43.78;;;32.40;43.40;;;;;;5066728;28;20213;-79
2022/06/14 11:26:02;;;;;;;48.63;45.95;;;32.50;41.20;;;;;;5054371;28;20187;-79
2022/06/14 11:28:36;;;;;;;30.05;28.35;;;32.00;40.40;;;;;;5066116;28;20193;-79
2022/06/14 11:31:12;;;;;;;24.20;22.80;;;31.80;43.40;;;;;;5062747;28;20209;-80
2022/06/14 11:33:54;;;;;;;29.42;27.83;;;31.50;44.10;;;;;;5059060;28;20182;-80
2022/06/14 11:36:41;;;;;;;20.48;19.25;;;31.20;44.10;;;;;;5058528;28;20217;-81
2022/06/14 11:39:17;;;;;;;30.00;28.15;;;32.00;42.60;;;;;;5057490;28;20186;-81
2022/06/14 11:41:46;;;;;;;47.78;45.20;;;32.70;42.00;;;;;;5056986;28;20224;-81
2022/06/14 11:44:25;;;;;;;39.55;37.35;;;32.60;42.00;;;;;;5060524;28;20173;-81
2022/06/14 11:47:16;;;;;;;39.58;37.47;;;32.50;42.30;;;;;;5060750;28;20209;-79
2022/06/14 11:49:50;;;;;;;46.78;44.10;;;32.90;41.30;;;;;;5054202;28;20186;-79
2022/06/14 11:52:38;;;;;;;36.25;34.25;;;33.20;42.10;;;;;;5057372;28;20688;-78
2022/06/14 11:55:39;;;;;;;51.55;48.92;;;32.40;40.60;;;;;;5056453;28;20182;-78
2022/06/14 11:58:32;;;;;;;56.05;53.38;;;32.80;41.60;;;;;;5053338;28;20233;-78
2022/06/14 12:01:28;;;;;;;59.53;56.53;;;32.80;41.20;;;;;;5056480;28;20201;-79
2022/06/14 12:03:58;;;;;;;58.58;55.30;;;32.70;42.80;;;;;;5056688;28;20186;-78
2022/06/14 12:06:36;;;;;;;56.65;53.65;;;32.60;43.10;;;;;;5062529;28;20202;-78
2022/06/14 12:09:05;;;;;;;83.40;78.88;;;32.60;43.50;;;;;;5056353;28;20249;-78
2022/06/14 12:11:39;;;;;;;84.40;80.13;;;33.10;41.30;;;;;;5055726;28;20227;-79
2022/06/14 12:14:29;;;;;;;73.90;70.03;;;33.30;40.70;;;;;;5053724;28;20193;-78
2022/06/14 12:17:32;;;;;;;66.43;62.97;;;33.40;41.00;;;;;;5057790;28;20278;-78
2022/06/14 12:20:10;;;;;;;30.83;29.10;;;34.10;40.10;;;;;;5065038;28;20201;-78
2022/06/14 12:22:39;;;;;;;25.77;24.13;;;34.30;39.50;;;;;;5057974;28;20222;-78
2022/06/14 12:28:08;;;;;;;14.63;13.73;;;33.90;39.70;;;;;;5063541;28;20174;-78
2022/06/14 12:30:36;;;;;;;19.90;18.73;;;33.60;38.50;;;;;;5052698;28;20675;-78
2022/06/14 12:33:32;;;;;;;53.50;50.72;;;33.70;40.00;;;;;;5054442;28;20269;-78
2022/06/14 12:36:06;;;;;;;8.15;7.45;;;34.40;41.50;;;;;;5057667;28;20217;-78
2022/06/14 12:38:38;;;;;;;7.53;7.03;;;35.30;38.60;;;;;;5063809;28;20185;-78
2022/06/14 12:41:27;;;;;;;5.82;4.35;;;36.00;37.80;;;;;;5066996;28;20221;-77
2022/06/14 12:44:11;;;;;;;6.63;4.70;;;36.40;35.90;;;;;;5066620;28;20209;-78
2022/06/14 12:46:42;;;;;;;5.40;4.88;;;35.50;37.20;;;;;;5061728;28;20202;-78
2022/06/14 12:49:31;;;;;;;6.15;5.72;;;34.40;36.90;;;;;;5063991;28;20187;-79
2022/06/14 12:52:13;;;;;;;7.95;7.35;;;34.40;40.00;;;;;;5064153;28;20658;-78
2022/06/14 12:54:46;;;;;;;6.05;5.45;;;34.90;38.60;;;;;;5062832;28;20209;-78
2022/06/14 12:57:54;;;;;;;6.45;5.88;;;36.00;37.30;;;;;;5062059;28;20225;-79
2022/06/14 13:00:51;;;;;;;5.88;5.38;;;35.70;36.50;;;;;;5060061;28;20273;-78
2022/06/14 13:03:33;;;;;;;8.10;7.55;;;34.60;37.80;;;;;;5061932;28;20285;-79
2022/06/14 13:06:24;;;;;;;7.00;6.40;;;33.80;39.40;;;;;;5060707;28;20206;-78
2022/06/14 13:09:10;;;;;;;7.78;6.90;;;34.10;39.20;;;;;;5068134;28;20190;-78
2022/06/14 13:12:25;;;;;;;6.85;6.35;;;34.70;37.80;;;;;;5064272;28;20794;-78
2022/06/14 13:15:00;;;;;;;6.30;5.90;;;34.60;38.30;;;;;;5038838;28;20187;-78
2022/06/14 13:17:52;;;;;;;7.45;6.82;;;34.40;38.20;;;;;;5035346;28;20662;-78
2022/06/14 13:20:30;;;;;;;6.47;5.72;;;34.10;39.00;;;;;;5054825;28;20190;-78
2022/06/14 13:23:21;;;;;;;6.38;5.88;;;34.30;38.90;;;;;;5061001;28;20221;-77
2022/06/14 13:26:05;;;;;;;6.07;5.43;;;34.30;39.10;;;;;;5050721;28;20193;-77
2022/06/14 13:29:10;;;;;;;6.15;5.72;;;35.00;37.70;;;;;;5065988;28;20178;-77
2022/06/14 13:32:02;;;;;;;5.97;5.43;;;35.10;37.00;;;;;;5066110;28;20198;-79
2022/06/14 13:34:55;;;;;;;6.45;5.85;;;35.50;36.50;;;;;;5062508;28;20579;-80
2022/06/14 13:37:24;;;;;;;6.32;4.88;;;35.60;36.80;;;;;;5062612;28;20321;-78
2022/06/14 13:39:59;;;;;;;5.10;4.07;;;35.40;37.20;;;;;;5062326;28;20180;-79
2022/06/14 13:42:38;;;;;;;5.15;4.38;;;36.60;35.70;;;;;;5060878;28;20219;-77
2022/06/14 13:45:24;;;;;;;5.82;5.43;;;35.60;37.00;;;;;;5059771;28;20205;-78
2022/06/14 13:47:56;;;;;;;6.25;5.88;;;35.30;36.60;;;;;;5060797;28;20198;-78
2022/06/14 13:50:33;;;;;;;6.25;4.95;;;35.30;36.00;;;;;;5059933;28;20211;-78
2022/06/14 13:53:03;;;;;;;6.00;5.53;;;35.00;36.30;;;;;;5060882;28;20178;-78